Time;durP1;ratioP1;P1;durP2;ratioP2;P2;SDS_P1;SDS_P2;PMS_P1;PMS_P2;Temp;Humidity;BMP_temperature;BMP_pressure;BME280_temperature;BME280_humidity;BME280_pressure;Samples;Min_cycle;Max_cycle;Signal;HPM_P1;HPM_P2
2022/02/20 00:02:20;;;;;;;34.30;15.20;;;;;;;0.19;61.13;98899.45;105189;1270;60426;-73
2022/02/20 00:04:46;;;;;;;31.20;14.50;;;;;;;0.18;61.07;98897.54;105209;1270;75323;-73
2022/02/20 00:07:14;;;;;;;28.50;14.40;;;;;;;0.21;61.21;98897.48;105223;1271;70486;-73
2022/02/20 00:09:42;;;;;;;28.60;13.70;;;;;;;0.23;61.26;98897.07;105218;1270;74599;-73
2022/02/20 00:12:09;;;;;;;27.50;13.00;;;;;;;0.25;61.17;98897.05;105191;1271;60567;-72
2022/02/20 00:14:36;;;;;;;22.60;11.90;;;;;;;0.26;61.18;98896.12;105256;1271;62221;-73
2022/02/20 00:17:03;;;;;;;24.60;11.50;;;;;;;0.28;61.16;98892.05;105202;1271;74108;-72
2022/02/20 00:19:30;;;;;;;23.60;11.00;;;;;;;0.29;61.13;98889.06;105223;1271;69874;-73
2022/02/20 00:21:56;;;;;;;21.90;11.60;;;;;;;0.29;61.01;98885.91;105194;1270;60471;-72
2022/02/20 00:24:22;;;;;;;23.60;10.20;;;;;;;0.29;61.07;98882.77;105179;1271;60476;-74
2022/02/20 00:26:49;;;;;;;17.50;9.60;;;;;;;0.29;61.12;98878.05;105235;1270;60386;-72
2022/02/20 00:29:16;;;;;;;24.10;10.40;;;;;;;0.30;60.90;98879.77;104960;1271;74383;-72
2022/02/20 00:31:42;;;;;;;22.90;9.10;;;;;;;0.27;61.06;98877.05;105208;1271;69687;-72
2022/02/20 00:34:09;;;;;;;21.00;9.10;;;;;;;0.28;60.92;98876.52;105186;1270;72192;-74
2022/02/20 00:36:36;;;;;;;22.60;10.00;;;;;;;0.28;61.05;98872.99;105213;1271;60543;-74
2022/02/20 00:39:03;;;;;;;20.20;8.10;;;;;;;0.27;61.03;98869.36;102249;1270;1015787;-72
2022/02/20 00:41:29;;;;;;;17.60;8.40;;;;;;;0.30;60.96;98870.85;105213;1270;74052;-72
2022/02/20 00:43:56;;;;;;;20.30;9.40;;;;;;;0.33;60.76;98871.81;105234;1271;60467;-72
2022/02/20 00:46:22;;;;;;;18.60;8.50;;;;;;;0.34;60.81;98867.23;105193;1270;60569;-72
2022/02/20 00:48:49;;;;;;;16.90;8.60;;;;;;;0.37;60.87;98867.86;104995;1271;60709;-72
2022/02/20 00:51:15;;;;;;;16.70;7.60;;;;;;;0.40;60.75;98869.35;105212;1270;60710;-72
2022/02/20 00:53:42;;;;;;;18.90;9.00;;;;;;;0.47;60.84;98865.31;104811;1271;305846;-72
2022/02/20 00:56:09;;;;;;;19.10;8.90;;;;;;;0.52;60.69;98860.10;105216;1270;70519;-73
2022/02/20 00:58:35;;;;;;;18.50;8.90;;;;;;;0.56;60.66;98858.92;105164;1270;73827;-73
2022/02/20 01:01:04;;;;;;;16.70;8.40;;;;;;;0.60;60.55;98851.48;105166;1270;60372;-72
2022/02/20 01:03:31;;;;;;;14.20;6.10;;;;;;;0.61;60.60;98852.30;105163;1270;60857;-73
2022/02/20 01:05:58;;;;;;;10.80;5.80;;;;;;;0.62;60.55;98843.90;105208;1270;75236;-72
2022/02/20 01:08:24;;;;;;;13.70;6.50;;;;;;;0.60;60.55;98832.76;105190;1270;69749;-72
2022/02/20 01:10:51;;;;;;;16.70;7.20;;;;;;;0.63;60.48;98829.17;105146;1270;74488;-73
2022/02/20 01:13:17;;;;;;;13.70;6.90;;;;;;;0.63;60.41;98827.44;105233;1270;60370;-73
2022/02/20 01:15:44;;;;;;;17.10;8.90;;;;;;;0.60;60.54;98824.02;105210;1270;60995;-73
2022/02/20 01:18:11;;;;;;;21.20;8.30;;;;;;;0.57;60.55;98815.38;105210;1270;75520;-73
2022/02/20 01:20:38;;;;;;;14.10;7.10;;;;;;;0.58;60.54;98815.00;105158;1270;70189;-73
2022/02/20 01:23:05;;;;;;;13.10;6.50;;;;;;;0.60;60.58;98813.52;105169;1270;60458;-74
2022/02/20 01:25:32;;;;;;;13.10;6.60;;;;;;;0.61;60.52;98808.63;105175;1270;60467;-72
2022/02/20 01:27:58;;;;;;;15.10;6.60;;;;;;;0.62;60.54;98807.89;105158;1270;62063;-72
2022/02/20 01:30:25;;;;;;;13.30;5.40;;;;;;;0.61;60.58;98803.20;105206;1270;74414;-73
2022/02/20 01:32:51;;;;;;;16.10;7.00;;;;;;;0.60;60.48;98799.20;105234;1270;69264;-72
2022/02/20 01:35:18;;;;;;;13.70;7.00;;;;;;;0.58;60.46;98797.17;105212;1270;60402;-73
2022/02/20 01:37:44;;;;;;;14.50;6.00;;;;;;;0.54;60.43;98796.42;105017;1271;60575;-73
2022/02/20 01:40:12;;;;;;;12.30;5.80;;;;;;;0.47;60.57;98793.48;105216;1270;60840;-71
2022/02/20 01:42:39;;;;;;;14.10;7.00;;;;;;;0.40;60.66;98787.91;105202;1270;75497;-73
2022/02/20 01:45:12;;;;;;;18.20;6.50;;;;;;;0.32;60.81;98779.07;105174;1270;69842;-72
2022/02/20 01:47:39;;;;;;;13.80;6.90;;;;;;;0.22;60.91;98772.00;105342;1270;73311;-72
2022/02/20 01:50:07;;;;;;;17.30;8.10;;;;;;;0.14;61.07;98768.58;105232;1270;60379;-73
2022/02/20 01:52:33;;;;;;;15.90;8.10;;;;;;;0.07;61.17;98764.23;105237;1270;61076;-73
2022/02/20 01:55:06;;;;;;;15.30;7.60;;;;;;;0.00;61.23;98755.86;105232;1270;60521;-73
2022/02/20 01:57:37;;;;;;;15.40;7.60;;;;;;;-0.04;61.30;98755.29;105081;1270;70880;-72
2022/02/20 02:00:08;;;;;;;17.50;6.10;;;;;;;-0.09;61.43;98759.25;105075;1270;73357;-72
2022/02/20 02:02:34;;;;;;;15.40;7.00;;;;;;;-0.14;61.47;98757.48;105353;1270;60479;-72
2022/02/20 02:05:02;;;;;;;13.80;7.20;;;;;;;-0.18;61.52;98760.02;105184;1270;60821;-74
2022/02/20 02:07:30;;;;;;;14.00;6.70;;;;;;;-0.22;61.60;98757.69;105207;1270;74576;-72
2022/02/20 02:09:56;;;;;;;12.90;8.10;;;;;;;-0.24;61.80;98757.74;105357;1270;69089;-73
2022/02/20 02:12:23;;;;;;;13.80;7.10;;;;;;;-0.26;61.99;98756.23;105187;1270;72575;-73
2022/02/20 02:15:08;;;;;;;15.10;7.40;;;;;;;-0.26;61.92;98754.49;105191;1270;60364;-75
2022/02/20 02:17:35;;;;;;;18.70;7.80;;;;;;;-0.27;62.25;98750.67;105239;1269;60772;-73
2022/02/20 02:20:04;;;;;;;13.00;7.40;;;;;;;-0.27;62.27;98741.26;105383;1270;74301;-76
2022/02/20 02:22:31;;;;;;;20.80;10.40;;;;;;;-0.27;62.50;98741.92;105199;1270;69269;-74
2022/02/20 02:24:59;;;;;;;17.30;9.20;;;;;;;-0.25;62.55;98741.36;105208;1270;73374;-74
2022/02/20 02:27:26;;;;;;;24.00;10.50;;;;;;;-0.21;62.86;98737.40;105166;1270;60380;-72
2022/02/20 02:29:54;;;;;;;21.70;9.80;;;;;;;-0.15;62.72;98727.65;105188;1270;61253;-72
2022/02/20 02:32:21;;;;;;;20.10;8.90;;;;;;;-0.08;62.76;98716.62;105214;1270;75591;-74
2022/02/20 02:34:48;;;;;;;18.70;8.60;;;;;;;-0.02;62.67;98710.52;104444;1270;1003089;-72
2022/02/20 02:37:15;;;;;;;17.30;7.40;;;;;;;0.03;62.72;98706.54;105198;1270;72747;-72
2022/02/20 02:39:43;;;;;;;22.40;9.50;;;;;;;0.10;62.76;98696.21;105179;1270;60451;-73
2022/02/20 02:42:10;;;;;;;15.20;8.60;;;;;;;0.17;62.75;98692.84;105182;1270;60884;-73
2022/02/20 02:44:37;;;;;;;13.70;7.70;;;;;;;0.22;62.71;98690.06;105159;1270;73955;-72
2022/02/20 02:47:04;;;;;;;15.10;7.40;;;;;;;0.26;62.55;98680.02;104940;1270;69382;-73
2022/02/20 02:49:31;;;;;;;13.70;4.60;;;;;;;0.28;62.57;98676.61;105159;1270;74927;-72
2022/02/20 02:51:57;;;;;;;13.30;5.10;;;;;;;0.29;62.67;98675.36;105199;1270;60348;-73
2022/02/20 02:54:24;;;;;;;11.20;4.40;;;;;;;0.28;62.70;98669.98;105171;1270;60469;-73
2022/02/20 02:56:51;;;;;;;10.10;4.60;;;;;;;0.28;62.82;98669.27;104929;1271;60623;-73
2022/02/20 02:59:18;;;;;;;7.80;4.70;;;;;;;0.28;62.74;98669.99;105205;1270;70345;-73
2022/02/20 03:01:47;;;;;;;10.30;5.10;;;;;;;0.28;62.90;98668.05;105191;1270;74185;-73
2022/02/20 03:04:14;;;;;;;11.50;5.50;;;;;;;0.28;62.96;98666.13;105004;1270;60482;-72
2022/02/20 03:06:40;;;;;;;12.50;4.90;;;;;;;0.30;63.18;98665.91;105175;1270;60722;-72
2022/02/20 03:09:07;;;;;;;9.30;4.80;;;;;;;0.31;63.30;98660.61;105204;1270;72662;-72
2022/02/20 03:11:34;;;;;;;11.00;5.10;;;;;;;0.32;63.26;98650.64;105239;1270;69393;-73
2022/02/20 03:14:02;;;;;;;11.20;5.50;;;;;;;0.31;63.28;98645.24;105208;1270;74306;-71
2022/02/20 03:16:29;;;;;;;11.00;5.50;;;;;;;0.31;63.16;98641.23;105171;1270;60480;-72
2022/02/20 03:18:56;;;;;;;15.40;6.20;;;;;;;0.30;63.32;98638.13;105144;1270;60514;-71
2022/02/20 03:21:23;;;;;;;14.60;6.70;;;;;;;0.32;63.32;98638.76;105218;1270;74842;-72
2022/02/20 03:23:49;;;;;;;11.00;5.60;;;;;;;0.34;63.35;98636.59;105198;1270;70202;-73
2022/02/20 03:26:16;;;;;;;12.60;6.40;;;;;;;0.36;63.20;98636.85;105200;1270;60588;-72
2022/02/20 03:28:42;;;;;;;15.60;6.80;;;;;;;0.39;63.04;98629.77;105223;1270;60616;-72
2022/02/20 03:31:09;;;;;;;18.10;9.00;;;;;;;0.41;63.02;98620.79;105176;1270;60879;-73
2022/02/20 03:33:36;;;;;;;15.70;7.50;;;;;;;0.43;63.00;98618.84;105252;1270;74463;-72
2022/02/20 03:36:03;;;;;;;13.70;6.10;;;;;;;0.45;63.03;98619.09;105206;1270;60480;-73
2022/02/20 03:38:30;;;;;;;13.20;6.60;;;;;;;0.50;62.99;98615.30;105077;1270;74535;-73
2022/02/20 03:40:56;;;;;;;12.70;6.20;;;;;;;0.50;62.95;98613.19;105206;1270;60559;-73
2022/02/20 03:43:23;;;;;;;9.10;4.70;;;;;;;0.50;62.91;98612.66;105019;1270;60524;-73
2022/02/20 03:45:49;;;;;;;12.80;5.30;;;;;;;0.51;63.05;98609.30;105208;1270;75324;-72
2022/02/20 03:48:16;;;;;;;11.40;5.80;;;;;;;0.51;63.05;98606.36;105208;1270;60568;-72
2022/02/20 03:50:42;;;;;;;10.60;5.00;;;;;;;0.50;63.06;98602.55;105084;1270;73863;-73
2022/02/20 03:53:09;;;;;;;11.00;4.70;;;;;;;0.47;63.03;98598.09;105191;1270;60880;-73
2022/02/20 03:55:35;;;;;;;12.20;4.70;;;;;;;0.44;63.14;98597.48;104987;1270;60868;-73
2022/02/20 03:58:02;;;;;;;9.60;5.30;;;;;;;0.40;63.19;98591.49;105147;1270;75293;-72
2022/02/20 04:00:30;;;;;;;10.90;5.60;;;;;;;0.36;63.20;98586.89;105071;1270;69403;-73
2022/02/20 04:02:56;;;;;;;10.20;4.90;;;;;;;0.34;63.36;98580.52;105208;1270;74100;-74
2022/02/20 04:05:23;;;;;;;10.00;4.60;;;;;;;0.31;63.50;98575.01;105251;1270;60437;-73
2022/02/20 04:07:50;;;;;;;9.90;4.90;;;;;;;0.30;63.53;98573.31;105270;1270;61134;-77
2022/02/20 04:10:16;;;;;;;7.80;4.60;;;;;;;0.30;63.50;98571.37;105282;1270;74409;-73
2022/02/20 04:12:43;;;;;;;7.30;3.90;;;;;;;0.31;63.72;98564.70;105263;1270;70086;-73
2022/02/20 04:15:10;;;;;;;8.70;4.10;;;;;;;0.32;63.78;98561.70;105651;1270;74294;-72
2022/02/20 04:17:42;;;;;;;7.40;3.50;;;;;;;0.33;63.76;98559.90;105097;1270;60582;-73
2022/02/20 04:20:12;;;;;;;8.20;3.80;;;;;;;0.36;63.77;98555.26;105243;1270;60860;-73
2022/02/20 04:22:39;;;;;;;10.90;4.30;;;;;;;0.39;63.83;98551.52;104961;1270;75684;-72
2022/02/20 04:25:07;;;;;;;8.00;4.40;;;;;;;0.44;63.92;98556.05;105245;1270;69588;-71
2022/02/20 04:27:33;;;;;;;10.50;6.20;;;;;;;0.51;63.85;98551.30;105015;1270;73236;-71
2022/02/20 04:30:00;;;;;;;12.20;5.80;;;;;;;0.59;63.96;98545.59;105192;1270;60424;-73
2022/02/20 04:32:27;;;;;;;10.30;5.80;;;;;;;0.67;63.93;98542.71;105199;1270;61044;-73
2022/02/20 04:34:54;;;;;;;21.50;10.50;;;;;;;0.75;63.96;98536.14;105254;1270;75476;-74
2022/02/20 04:37:20;;;;;;;33.90;14.30;;;;;;;0.80;63.78;98535.23;105221;1270;60422;-74
2022/02/20 04:39:47;;;;;;;35.40;14.60;;;;;;;0.86;63.71;98532.09;105224;1270;73234;-73
2022/02/20 04:42:13;;;;;;;25.60;11.80;;;;;;;0.90;63.61;98529.84;105205;1270;60588;-75
2022/02/20 04:44:40;;;;;;;23.10;9.90;;;;;;;0.94;63.61;98521.31;104927;1270;60511;-73
2022/02/20 04:47:06;;;;;;;14.30;6.40;;;;;;;0.97;63.55;98515.60;105201;1270;60386;-72
2022/02/20 04:49:33;;;;;;;14.30;5.50;;;;;;;1.00;63.34;98506.23;102968;1270;1016393;-73
2022/02/20 04:52:00;;;;;;;11.30;5.40;;;;;;;1.02;63.26;98499.85;105192;1270;60485;-73
2022/02/20 04:54:26;;;;;;;12.60;6.10;;;;;;;1.04;63.21;98491.05;105159;1270;60948;-72
2022/02/20 04:56:53;;;;;;;14.30;6.60;;;;;;;1.05;63.13;98481.20;105178;1269;60473;-72
2022/02/20 04:59:19;;;;;;;10.20;5.00;;;;;;;1.07;62.94;98476.04;105150;1270;60309;-73
2022/02/20 05:01:46;;;;;;;11.40;5.10;;;;;;;1.11;62.90;98464.36;105166;1270;60556;-73
2022/02/20 05:04:12;;;;;;;10.10;4.50;;;;;;;1.16;62.69;98448.78;105175;1270;60679;-73
2022/02/20 05:06:39;;;;;;;10.10;4.10;;;;;;;1.21;62.62;98440.70;105126;1270;60598;-73
2022/02/20 05:09:05;;;;;;;7.20;3.90;;;;;;;1.28;62.41;98442.89;105136;1270;60578;-72
2022/02/20 05:11:32;;;;;;;10.20;3.70;;;;;;;1.36;62.24;98438.04;105198;1270;60507;-73
2022/02/20 05:13:59;;;;;;;9.00;3.10;;;;;;;1.47;61.88;98432.33;105176;1270;60573;-73
2022/02/20 05:16:28;;;;;;;6.10;3.30;;;;;;;1.59;61.75;98432.22;105022;1270;74435;-72
2022/02/20 05:18:55;;;;;;;6.80;2.80;;;;;;;1.71;61.32;98423.02;105160;1270;60445;-73
2022/02/20 05:21:22;;;;;;;5.40;2.60;;;;;;;1.81;61.12;98417.86;105229;1270;61791;-72
2022/02/20 05:23:49;;;;;;;6.90;2.70;;;;;;;1.92;60.81;98411.83;105182;1270;74227;-73
2022/02/20 05:26:15;;;;;;;5.90;2.30;;;;;;;2.03;60.62;98412.23;105210;1270;69239;-72
2022/02/20 05:28:42;;;;;;;6.60;2.40;;;;;;;2.11;60.45;98409.80;105210;1270;72281;-72
2022/02/20 05:31:09;;;;;;;7.20;2.40;;;;;;;2.17;60.26;98406.02;105169;1270;60989;-71
2022/02/20 05:33:36;;;;;;;6.80;2.30;;;;;;;2.25;59.93;98405.73;104963;1270;61910;-71
2022/02/20 05:36:03;;;;;;;5.30;2.10;;;;;;;2.32;59.75;98400.52;105165;1270;60534;-71
2022/02/20 05:38:29;;;;;;;6.50;2.00;;;;;;;2.39;59.52;98395.11;105178;1270;69157;-73
2022/02/20 05:40:56;;;;;;;5.40;2.20;;;;;;;2.46;59.46;98390.27;105162;1270;74207;-73
2022/02/20 05:43:22;;;;;;;5.60;2.70;;;;;;;2.49;59.38;98385.38;105179;1270;60596;-75
2022/02/20 05:45:49;;;;;;;6.50;2.70;;;;;;;2.53;59.04;98384.83;105189;1270;60374;-72
2022/02/20 05:48:17;;;;;;;4.80;1.80;;;;;;;2.59;59.09;98379.33;105214;1270;74299;-71
2022/02/20 05:50:44;;;;;;;6.10;2.30;;;;;;;2.62;58.96;98379.70;105166;1270;68154;-73
2022/02/20 05:53:10;;;;;;;4.10;2.20;;;;;;;2.68;58.75;98377.67;105194;1270;72451;-72
2022/02/20 05:55:37;;;;;;;7.20;2.70;;;;;;;2.76;58.78;98377.50;105209;1270;60607;-72
2022/02/20 05:58:04;;;;;;;8.00;2.50;;;;;;;2.84;58.50;98383.27;104981;1270;61043;-72
2022/02/20 06:00:30;;;;;;;5.60;2.20;;;;;;;2.96;58.25;98378.69;104215;1270;1005948;-72
2022/02/20 06:02:57;;;;;;;4.70;2.50;;;;;;;3.10;58.03;98382.97;105082;1270;60492;-72
2022/02/20 06:05:24;;;;;;;6.70;2.40;;;;;;;3.25;57.74;98387.02;105294;1270;73559;-72
2022/02/20 06:07:50;;;;;;;6.20;2.70;;;;;;;3.36;57.48;98388.08;105237;1270;60560;-72
2022/02/20 06:10:17;;;;;;;8.40;3.00;;;;;;;3.44;57.38;98391.92;105259;1270;60455;-71
2022/02/20 06:12:44;;;;;;;10.60;3.00;;;;;;;3.51;56.89;98395.45;105220;1270;75837;-72
2022/02/20 06:15:12;;;;;;;7.00;2.90;;;;;;;3.59;56.52;98398.58;105170;1270;70460;-71
2022/02/20 06:17:39;;;;;;;7.70;2.30;;;;;;;3.66;56.69;98407.72;105196;1270;73095;-73
2022/02/20 06:20:06;;;;;;;5.90;2.30;;;;;;;3.71;56.17;98422.95;105194;1270;60639;-72
2022/02/20 06:22:32;;;;;;;6.00;1.90;;;;;;;3.80;56.84;98418.46;105208;1270;60372;-72
2022/02/20 06:24:59;;;;;;;4.60;1.90;;;;;;;3.84;57.66;98426.17;105184;1270;74655;-72
2022/02/20 06:27:26;;;;;;;5.40;1.90;;;;;;;3.85;58.13;98431.24;105190;1269;69594;-73
2022/02/20 06:29:52;;;;;;;4.20;1.90;;;;;;;3.83;59.74;98414.30;104927;1270;74528;-73
2022/02/20 06:32:19;;;;;;;5.10;1.50;;;;;;;3.79;60.92;98426.98;105190;1270;60467;-74
2022/02/20 06:34:45;;;;;;;4.90;1.70;;;;;;;3.76;62.89;98435.88;105200;1270;60486;-73
2022/02/20 06:37:12;;;;;;;4.40;1.70;;;;;;;3.72;64.52;98436.76;105197;1270;60582;-71
2022/02/20 06:39:44;;;;;;;6.20;1.60;;;;;;;3.70;65.59;98441.09;105136;1270;68587;-72
2022/02/20 06:42:16;;;;;;;3.90;1.40;;;;;;;3.71;66.15;98442.96;105180;1270;73238;-72
2022/02/20 06:44:43;;;;;;;4.40;1.40;;;;;;;3.77;67.13;98445.51;105385;1270;60520;-72
2022/02/20 06:47:11;;;;;;;3.80;1.50;;;;;;;3.86;68.61;98450.49;105179;1270;60833;-72
2022/02/20 06:49:37;;;;;;;3.80;1.40;;;;;;;3.94;69.02;98455.73;105164;1270;75192;-72
2022/02/20 06:52:04;;;;;;;4.00;1.20;;;;;;;3.91;70.79;98458.69;105162;1270;69878;-72
2022/02/20 06:54:31;;;;;;;2.30;1.70;;;;;;;3.79;71.58;98456.28;105165;1270;73559;-73
2022/02/20 06:56:57;;;;;;;3.50;1.60;;;;;;;3.70;71.46;98462.17;105167;1270;60384;-73
2022/02/20 06:59:24;;;;;;;4.10;1.80;;;;;;;3.63;72.60;98463.91;105164;1270;60872;-73
2022/02/20 07:01:51;;;;;;;2.20;1.40;;;;;;;3.60;74.50;98466.67;105219;1270;75562;-73
2022/02/20 07:04:18;;;;;;;5.30;1.60;;;;;;;3.57;74.72;98459.98;105467;1270;69349;-72
2022/02/20 07:06:45;;;;;;;5.10;1.80;;;;;;;3.53;76.83;98456.13;105237;1270;73757;-72
2022/02/20 07:09:12;;;;;;;4.00;1.80;;;;;;;3.45;78.38;98464.05;105276;1270;60495;-74
2022/02/20 07:11:40;;;;;;;3.30;1.70;;;;;;;3.36;78.18;98450.79;105277;1270;60900;-72
2022/02/20 07:14:07;;;;;;;5.30;1.40;;;;;;;3.26;80.05;98451.94;105013;1270;75048;-72
2022/02/20 07:16:34;;;;;;;2.80;1.50;;;;;;;3.18;80.30;98453.71;105317;1270;69292;-72
2022/02/20 07:19:00;;;;;;;4.70;1.80;;;;;;;3.16;80.71;98450.80;105125;1270;74488;-72
2022/02/20 07:21:28;;;;;;;4.30;1.80;;;;;;;3.20;81.87;98446.56;105263;1270;60453;-73
2022/02/20 07:23:58;;;;;;;3.60;1.80;;;;;;;3.28;81.84;98442.51;105286;1270;61872;-74
2022/02/20 07:26:29;;;;;;;3.50;1.90;;;;;;;3.42;82.73;98446.82;105289;1270;76158;-74
2022/02/20 07:28:56;;;;;;;4.80;2.00;;;;;;;3.49;82.15;98451.35;105299;1270;70217;-76
2022/02/20 07:31:23;;;;;;;3.60;1.80;;;;;;;3.51;83.01;98451.98;105257;1270;73813;-74
2022/02/20 07:33:53;;;;;;;2.40;1.50;;;;;;;3.55;82.55;98457.29;105158;1270;60923;-75
2022/02/20 07:36:21;;;;;;;3.00;2.60;;;;;;;3.53;83.41;98452.95;105254;1270;61079;-74
2022/02/20 07:38:48;;;;;;;2.60;1.60;;;;;;;3.48;83.59;98456.34;105423;1270;75608;-74
2022/02/20 07:41:16;;;;;;;1.70;1.60;;;;;;;3.41;84.49;98461.61;105299;1270;68975;-76
2022/02/20 07:43:44;;;;;;;4.20;2.10;;;;;;;3.36;84.83;98457.81;105271;1270;72851;-75
2022/02/20 07:46:11;;;;;;;4.40;2.80;;;;;;;3.29;86.00;98455.10;105268;1270;60563;-76
2022/02/20 07:48:40;;;;;;;5.60;2.90;;;;;;;3.27;85.69;98452.90;105322;1268;60393;-74
2022/02/20 07:51:07;;;;;;;6.00;2.90;;;;;;;3.30;86.49;98452.42;105272;1270;75497;-74
2022/02/20 07:53:33;;;;;;;5.30;3.50;;;;;;;3.38;85.98;98454.02;104981;1270;67579;-76
2022/02/20 07:56:00;;;;;;;6.20;3.30;;;;;;;3.48;86.26;98453.02;105157;1270;75166;-74
2022/02/20 07:58:26;;;;;;;4.60;2.80;;;;;;;3.58;86.57;98448.70;105124;1270;60467;-74
2022/02/20 08:00:53;;;;;;;6.10;3.10;;;;;;;3.60;86.81;98445.96;105155;1270;60466;-75
2022/02/20 08:03:19;;;;;;;3.40;2.50;;;;;;;3.56;87.14;98453.35;105168;1270;60534;-76
2022/02/20 08:05:46;;;;;;;5.00;3.20;;;;;;;3.47;87.05;98453.22;105169;1270;69260;-73
2022/02/20 08:08:13;;;;;;;5.70;3.60;;;;;;;3.42;87.30;98450.81;105040;1271;60507;-73
2022/02/20 08:10:39;;;;;;;7.10;4.60;;;;;;;3.39;87.61;98450.97;105172;1270;60353;-75
2022/02/20 08:13:06;;;;;;;6.50;4.10;;;;;;;3.39;88.70;98446.41;105162;1270;62003;-75
2022/02/20 08:15:32;;;;;;;8.40;4.70;;;;;;;3.35;89.31;98442.02;105071;1270;74539;-75
2022/02/20 08:17:59;;;;;;;10.60;6.00;;;;;;;3.34;89.68;98441.37;105160;1270;60416;-75
2022/02/20 08:20:26;;;;;;;8.40;5.50;;;;;;;3.35;89.61;98438.33;105025;1270;74294;-76
2022/02/20 08:22:52;;;;;;;6.50;3.80;;;;;;;3.43;89.70;98441.84;105130;1270;60377;-76
2022/02/20 08:25:19;;;;;;;8.00;5.00;;;;;;;3.55;89.35;98442.86;105179;1270;61075;-75
2022/02/20 08:27:45;;;;;;;10.10;4.50;;;;;;;3.66;89.58;98441.27;105152;1267;74463;-74
2022/02/20 08:30:13;;;;;;;6.20;4.40;;;;;;;3.72;89.38;98441.33;105146;1270;69183;-76
2022/02/20 08:32:40;;;;;;;10.80;5.50;;;;;;;3.75;89.02;98449.61;105183;1270;73528;-74
2022/02/20 08:35:08;;;;;;;8.60;5.60;;;;;;;3.69;89.22;98447.27;105102;1270;60498;-75
2022/02/20 08:37:43;;;;;;;9.30;5.00;;;;;;;3.62;89.91;98441.80;104984;1270;62006;-74
2022/02/20 08:40:16;;;;;;;10.10;4.70;;;;;;;3.62;89.86;98445.13;105105;1270;74377;-75
2022/02/20 08:42:43;;;;;;;9.50;5.40;;;;;;;3.68;90.12;98438.00;105192;1270;68702;-74
2022/02/20 08:45:12;;;;;;;9.10;5.80;;;;;;;3.76;89.96;98433.25;105101;1270;73354;-74
2022/02/20 08:47:39;;;;;;;8.60;4.60;;;;;;;3.84;89.83;98436.34;105104;1270;60550;-75
2022/02/20 08:50:09;;;;;;;6.70;4.80;;;;;;;3.93;90.30;98435.95;105162;1270;61175;-75
2022/02/20 08:52:36;;;;;;;7.10;4.00;;;;;;;4.02;89.77;98434.27;105328;1270;75513;-76
2022/02/20 08:55:05;;;;;;;7.70;4.50;;;;;;;4.06;89.76;98432.28;105173;1270;69221;-74
2022/02/20 08:57:32;;;;;;;7.30;4.00;;;;;;;4.05;90.34;98429.55;105122;1270;73447;-75
2022/02/20 09:00:01;;;;;;;4.60;3.20;;;;;;;4.00;90.07;98432.96;105525;1270;60585;-75
2022/02/20 09:02:28;;;;;;;7.20;3.70;;;;;;;3.94;90.27;98429.90;105181;1270;62582;-73
2022/02/20 09:04:54;;;;;;;6.40;3.60;;;;;;;3.92;90.77;98430.53;105176;1270;74498;-76
2022/02/20 09:07:21;;;;;;;8.00;4.50;;;;;;;3.93;90.77;98437.70;105206;1270;60588;-75
2022/02/20 09:09:48;;;;;;;6.20;3.80;;;;;;;3.96;90.62;98437.01;105161;1270;74480;-75
2022/02/20 09:12:15;;;;;;;5.50;3.00;;;;;;;4.04;90.50;98438.92;105002;1270;60509;-74
2022/02/20 09:14:41;;;;;;;3.90;2.30;;;;;;;4.07;90.92;98435.39;105009;1270;60533;-74
2022/02/20 09:17:08;;;;;;;4.60;2.70;;;;;;;4.10;92.22;98434.55;105160;1270;74275;-74
2022/02/20 09:19:34;;;;;;;4.20;2.40;;;;;;;4.13;91.03;98431.06;105143;1270;70965;-74
2022/02/20 09:22:01;;;;;;;3.20;2.10;;;;;;;4.17;90.99;98427.36;105041;1270;60357;-74
2022/02/20 09:24:28;;;;;;;5.80;2.90;;;;;;;4.21;90.61;98427.33;105129;1270;60508;-73
2022/02/20 09:26:54;;;;;;;8.00;2.90;;;;;;;4.33;90.30;98432.55;105177;1270;60688;-74
2022/02/20 09:29:21;;;;;;;6.00;2.70;;;;;;;4.48;90.03;98427.56;105234;1270;74531;-74
2022/02/20 09:31:48;;;;;;;2.60;2.30;;;;;;;4.63;89.59;98427.98;105092;1270;70139;-75
2022/02/20 09:34:14;;;;;;;8.30;3.60;;;;;;;4.76;88.95;98425.39;105114;1270;60433;-74
2022/02/20 09:36:41;;;;;;;3.20;2.10;;;;;;;4.86;88.04;98426.47;105125;1270;60405;-75
2022/02/20 09:39:08;;;;;;;4.90;2.60;;;;;;;4.92;87.70;98426.99;105216;1270;60943;-74
2022/02/20 09:41:36;;;;;;;6.00;4.20;;;;;;;4.95;87.65;98427.56;105127;1270;75571;-75
2022/02/20 09:44:03;;;;;;;4.00;2.40;;;;;;;5.00;87.16;98431.16;105265;1267;68698;-75
2022/02/20 09:46:30;;;;;;;5.20;3.20;;;;;;;5.01;86.68;98429.52;105262;1270;74579;-75
2022/02/20 09:48:59;;;;;;;3.30;2.60;;;;;;;5.00;86.36;98425.90;105185;1270;60480;-75
2022/02/20 09:51:27;;;;;;;4.80;2.30;;;;;;;5.06;86.37;98432.27;105304;1270;60780;-74
2022/02/20 09:53:54;;;;;;;5.20;2.40;;;;;;;5.12;86.03;98433.52;105368;1270;74205;-74
2022/02/20 09:56:21;;;;;;;5.50;2.70;;;;;;;5.25;85.66;98431.40;105216;1270;69692;-74
2022/02/20 09:58:48;;;;;;;4.20;3.00;;;;;;;5.46;85.43;98431.67;105163;1270;73358;-74
2022/02/20 10:01:15;;;;;;;3.80;2.60;;;;;;;5.66;84.61;98434.27;105192;1270;60541;-73
2022/02/20 10:03:44;;;;;;;4.60;2.90;;;;;;;5.85;83.67;98428.23;105189;1270;61661;-76
2022/02/20 10:06:14;;;;;;;2.50;2.30;;;;;;;5.99;82.18;98432.92;105241;1271;74544;-76
2022/02/20 10:08:58;;;;;;;2.90;2.10;;;;;;;6.05;82.03;98431.01;105300;1270;69413;-74
2022/02/20 10:11:30;;;;;;;3.60;2.00;;;;;;;6.11;80.78;98430.67;105198;1270;74365;-74
2022/02/20 10:14:14;;;;;;;2.30;2.10;;;;;;;6.07;80.41;98429.11;105179;1270;60575;-74
2022/02/20 10:16:41;;;;;;;4.80;2.20;;;;;;;6.05;79.65;98436.67;105310;1270;62051;-75
2022/02/20 10:19:11;;;;;;;4.70;3.10;;;;;;;6.09;79.19;98428.30;105172;1270;74486;-73
2022/02/20 10:21:39;;;;;;;4.10;3.00;;;;;;;6.22;78.49;98425.46;105756;1269;70357;-76
2022/02/20 10:24:11;;;;;;;9.90;6.00;;;;;;;6.38;78.29;98421.85;105014;1270;73216;-73
2022/02/20 10:26:47;;;;;;;7.60;4.40;;;;;;;6.56;77.61;98429.45;105111;1270;60449;-73
2022/02/20 10:29:18;;;;;;;8.00;3.00;;;;;;;6.70;77.03;98427.76;105151;1270;60829;-74
2022/02/20 10:31:55;;;;;;;4.10;2.50;;;;;;;6.78;75.69;98425.11;105687;1270;75240;-74
2022/02/20 10:34:25;;;;;;;6.10;2.60;;;;;;;6.83;75.29;98427.15;105293;1270;66556;-74
2022/02/20 10:37:03;;;;;;;6.00;3.30;;;;;;;6.86;74.83;98417.95;105190;1270;71487;-75
2022/02/20 10:39:35;;;;;;;3.60;2.20;;;;;;;6.87;74.45;98423.32;105374;1270;60474;-87
2022/02/20 10:42:12;;;;;;;3.70;2.40;;;;;;;6.90;73.85;98420.18;105687;1270;62170;-82
2022/02/20 10:45:20;;;;;;;4.80;2.40;;;;;;;6.98;73.96;98420.04;105673;1270;74583;-87
2022/02/20 10:47:47;;;;;;;3.90;2.40;;;;;;;7.15;73.53;98424.95;105276;1279;69467;-82
2022/02/20 10:50:16;;;;;;;5.70;2.80;;;;;;;7.34;73.10;98422.02;104933;1279;74392;-83
2022/02/20 10:52:43;;;;;;;5.50;4.30;;;;;;;7.53;72.86;98424.71;105344;1278;60526;-86
2022/02/20 10:55:12;;;;;;;5.30;3.20;;;;;;;7.58;72.29;98422.64;105249;1279;60495;-85
2022/02/20 10:57:41;;;;;;;4.20;2.70;;;;;;;7.50;72.35;98425.80;105297;1279;74536;-85
2022/02/20 11:00:16;;;;;;;3.10;2.00;;;;;;;7.34;72.63;98432.44;106066;1278;69323;-91
2022/02/20 11:02:44;;;;;;;4.60;3.20;;;;;;;7.21;72.34;98430.10;106548;1279;72668;-90
2022/02/20 11:05:12;;;;;;;5.10;3.40;;;;;;;7.13;72.68;98425.85;106290;1279;60792;-89
2022/02/20 11:07:40;;;;;;;3.10;2.10;;;;;;;7.12;72.56;98424.27;106219;1279;60576;-91
2022/02/20 11:10:09;;;;;;;4.50;2.20;;;;;;;7.19;72.17;98426.15;106191;1279;72869;-89
2022/02/20 11:12:38;;;;;;;5.50;2.60;;;;;;;7.28;71.92;98424.52;105432;1279;67674;-85
2022/02/20 11:15:06;;;;;;;3.50;2.10;;;;;;;7.32;71.44;98426.23;105321;1279;73336;-83
2022/02/20 11:17:35;;;;;;;3.90;2.60;;;;;;;7.37;71.48;98424.83;105120;1279;60521;-80
2022/02/20 11:20:05;;;;;;;5.20;2.60;;;;;;;7.52;71.34;98427.04;105161;1279;61899;-80
2022/02/20 11:22:36;;;;;;;5.70;2.50;;;;;;;7.64;71.37;98421.73;104732;1279;74449;-79
2022/02/20 11:25:07;;;;;;;5.00;2.70;;;;;;;7.69;70.85;98426.33;105268;1271;70329;-79
2022/02/20 11:27:38;;;;;;;5.30;2.90;;;;;;;7.70;70.05;98418.66;105688;1270;74682;-82
2022/02/20 11:30:05;;;;;;;4.60;2.80;;;;;;;7.70;68.90;98423.08;106101;1270;60688;-85
2022/02/20 11:32:36;;;;;;;3.70;2.70;;;;;;;7.72;69.11;98420.88;105777;1270;60360;-85